createdAt,value
2023-04-11T00:00:14.855Z,100.00
2023-04-11T00:02:42.840Z,100.00
2023-04-11T00:05:12.318Z,99.94
2023-04-11T00:07:40.228Z,99.56
2023-04-11T00:10:08.934Z,99.44
2023-04-11T00:12:36.830Z,100.00
2023-04-11T00:15:05.263Z,100.00
2023-04-11T00:17:33.476Z,100.00
2023-04-11T00:20:07.977Z,99.54
2023-04-11T00:22:38.889Z,100.00
2023-04-11T00:25:07.640Z,100.00
2023-04-11T00:27:35.526Z,100.00
2023-04-11T00:30:03.599Z,100.00
2023-04-11T00:32:31.994Z,100.00
2023-04-11T00:35:00.205Z,99.48
2023-04-11T00:37:28.093Z,99.57
2023-04-11T00:39:58.117Z,99.84
2023-04-11T00:42:25.908Z,100.00
2023-04-11T00:44:54.537Z,99.81
2023-04-11T00:47:22.448Z,100.00
2023-04-11T00:49:50.523Z,99.67
2023-04-11T00:52:19.325Z,100.00
2023-04-11T00:54:47.747Z,99.77
2023-04-11T00:57:17.224Z,99.38
2023-04-11T00:59:48.264Z,100.00
2023-04-11T01:02:18.437Z,99.49
2023-04-11T01:04:46.932Z,99.92
2023-04-11T01:07:16.416Z,100.00
2023-04-11T01:09:45.038Z,99.67
2023-04-11T01:12:15.761Z,99.70
2023-04-11T01:14:47.714Z,99.45
2023-04-11T01:17:16.419Z,100.00
2023-04-11T01:19:44.342Z,99.95
2023-04-11T01:22:14.651Z,100.00
2023-04-11T01:24:44.111Z,100.00
2023-04-11T01:27:12.461Z,100.00
2023-04-11T01:29:40.591Z,100.00
2023-04-11T01:32:08.722Z,100.00
2023-04-11T01:34:38.867Z,99.50
2023-04-11T01:37:07.239Z,99.68
2023-04-11T01:39:35.154Z,100.00
2023-04-11T01:42:05.508Z,99.87
2023-04-11T01:44:34.233Z,99.80
2023-04-11T01:47:04.724Z,100.00
2023-04-11T01:49:33.510Z,98.98
2023-04-11T01:52:01.396Z,98.50
2023-04-11T01:54:29.286Z,99.11
2023-04-11T01:56:57.583Z,99.48
2023-04-11T01:59:26.897Z,100.00
2023-04-11T02:01:54.990Z,100.00
2023-04-11T02:04:23.064Z,99.88
2023-04-11T02:06:51.080Z,99.82
2023-04-11T02:09:20.672Z,100.00
2023-04-11T02:11:48.579Z,100.00
2023-04-11T02:14:18.454Z,100.00
2023-04-11T02:16:55.820Z,99.29
2023-04-11T02:19:26.338Z,99.34
2023-04-11T02:21:55.443Z,98.57
2023-04-11T02:24:23.363Z,99.66
2023-04-11T02:26:51.302Z,100.00
2023-04-11T02:29:19.142Z,99.69
2023-04-11T02:31:49.573Z,98.05
2023-04-11T02:34:20.051Z,97.13
2023-04-11T02:36:48.948Z,98.61
2023-04-11T02:39:17.223Z,95.77
2023-04-11T02:41:45.127Z,95.20
2023-04-11T02:44:13.547Z,95.11
2023-04-11T02:46:43.029Z,95.44
2023-04-11T02:49:11.667Z,96.41
2023-04-11T02:51:41.074Z,96.98
2023-04-11T02:54:09.144Z,97.83
2023-04-11T02:56:39.208Z,96.37
2023-04-11T02:59:07.530Z,97.21
2023-04-11T03:01:37.608Z,94.03
2023-04-11T03:04:07.276Z,95.64
2023-04-11T03:06:49.918Z,95.06
2023-04-11T03:09:18.026Z,95.83
2023-04-11T03:11:47.283Z,96.73
2023-04-11T03:14:16.304Z,95.68
2023-04-11T03:16:44.338Z,94.93
2023-04-11T03:19:13.057Z,94.27
2023-04-11T03:21:40.985Z,94.33
2023-04-11T03:24:12.601Z,94.23
2023-04-11T03:26:41.998Z,93.63
2023-04-11T03:29:13.629Z,92.93
2023-04-11T03:31:57.007Z,92.59
2023-04-11T03:34:26.136Z,92.36
2023-04-11T03:36:55.437Z,94.53
2023-04-11T03:39:26.085Z,93.13
2023-04-11T03:41:54.301Z,93.04
2023-04-11T03:44:22.227Z,91.73
2023-04-11T03:46:50.323Z,93.29
2023-04-11T03:49:18.945Z,93.00
2023-04-11T03:51:52.871Z,92.72
2023-04-11T03:54:21.170Z,91.83
2023-04-11T03:56:50.646Z,92.08
2023-04-11T03:59:23.245Z,93.06
2023-04-11T04:02:04.626Z,91.68
2023-04-11T04:04:34.233Z,91.68
2023-04-11T04:07:11.565Z,91.73
2023-04-11T04:09:43.360Z,91.50
2023-04-11T04:12:13.268Z,90.40
2023-04-11T04:15:15.043Z,91.29
2023-04-11T04:17:46.426Z,90.10
2023-04-11T04:20:21.089Z,90.26
2023-04-11T04:22:54.392Z,91.51
2023-04-11T04:25:30.460Z,90.65
2023-04-11T04:28:01.162Z,90.04
2023-04-11T04:30:38.230Z,90.63
2023-04-11T04:33:12.455Z,91.17
2023-04-11T04:35:45.188Z,90.95
2023-04-11T04:38:17.598Z,90.77
2023-04-11T04:40:50.519Z,90.67
2023-04-11T04:43:24.563Z,89.92
2023-04-11T04:46:12.825Z,88.83
2023-04-11T04:48:51.035Z,89.37
2023-04-11T04:51:19.055Z,88.52
2023-04-11T04:53:47.780Z,89.19
2023-04-11T04:56:16.357Z,89.74
2023-04-11T04:58:48.918Z,88.72
2023-04-11T05:01:18.912Z,88.69
2023-04-11T05:03:58.664Z,90.63
2023-04-11T05:06:39.185Z,89.54
2023-04-11T05:09:07.208Z,88.85
2023-04-11T05:11:35.763Z,89.37
2023-04-11T05:14:06.032Z,88.85
2023-04-11T05:16:37.536Z,88.62
2023-04-11T05:19:05.497Z,88.92
2023-04-11T05:21:35.917Z,89.06
2023-04-11T05:24:03.824Z,87.50
2023-04-11T05:26:36.254Z,88.50
2023-04-11T05:29:06.631Z,88.58
2023-04-11T05:31:34.850Z,88.50
2023-04-11T05:34:03.593Z,89.39
2023-04-11T05:36:31.801Z,89.06
2023-04-11T05:38:59.914Z,88.57
2023-04-11T05:41:29.160Z,87.44
2023-04-11T05:43:57.425Z,89.21
2023-04-11T05:46:29.381Z,88.83
2023-04-11T05:48:58.623Z,88.16
2023-04-11T05:51:26.513Z,88.46
2023-04-11T05:53:54.633Z,88.65
2023-04-11T05:56:22.668Z,88.36
2023-04-11T05:58:50.579Z,88.00
2023-04-11T06:01:19.511Z,88.62
2023-04-11T06:03:49.848Z,88.62
2023-04-11T06:06:17.978Z,88.49
2023-04-11T06:08:46.107Z,88.47
2023-04-11T06:11:13.933Z,88.59
2023-04-11T06:13:41.718Z,88.83
2023-04-11T06:16:10.203Z,89.03
2023-04-11T06:18:38.162Z,87.34
2023-04-11T06:21:07.502Z,88.37
2023-04-11T06:23:35.342Z,87.91
2023-04-11T06:26:03.258Z,88.77
2023-04-11T06:28:31.121Z,87.60
2023-04-11T06:30:59.164Z,87.31
2023-04-11T06:33:27.050Z,86.60
2023-04-11T06:35:54.922Z,86.18
2023-04-11T06:38:24.216Z,86.63
2023-04-11T06:40:54.511Z,85.32
2023-04-11T06:43:22.364Z,85.35
2023-04-11T06:45:51.483Z,84.80
2023-04-11T06:48:20.910Z,83.99
2023-04-11T06:50:49.737Z,83.17
2023-04-11T06:53:17.613Z,82.90
2023-04-11T06:55:49.502Z,82.31
2023-04-11T06:58:17.459Z,82.78
2023-04-11T07:00:45.231Z,81.82
2023-04-11T07:03:14.036Z,82.52
2023-04-11T07:05:41.951Z,82.96
2023-04-11T07:08:09.944Z,82.17
2023-04-11T07:10:37.865Z,82.38
2023-04-11T07:13:07.059Z,82.25
2023-04-11T07:15:34.866Z,83.08
2023-04-11T07:18:02.948Z,82.27
2023-04-11T07:20:32.815Z,81.38
2023-04-11T07:23:00.748Z,78.13
2023-04-11T07:25:30.479Z,75.90
2023-04-11T07:27:58.540Z,77.04
2023-04-11T07:30:27.816Z,75.99
2023-04-11T07:32:55.914Z,75.39
2023-04-11T07:35:23.998Z,69.83
2023-04-11T07:37:53.609Z,71.42
2023-04-11T07:40:21.982Z,69.61
2023-04-11T07:42:49.870Z,71.26
2023-04-11T07:45:17.697Z,73.26
2023-04-11T07:47:46.947Z,72.13
2023-04-11T07:50:14.775Z,71.16
2023-04-11T07:52:42.577Z,70.95
2023-04-11T07:55:11.408Z,68.84
2023-04-11T07:57:39.547Z,69.40
2023-04-11T08:00:11.535Z,68.33
2023-04-11T08:02:42.703Z,68.86
2023-04-11T08:05:12.348Z,67.28
2023-04-11T08:07:41.265Z,66.89
2023-04-11T08:10:10.052Z,67.25
2023-04-11T08:12:37.886Z,67.09
2023-04-11T08:15:06.912Z,67.89
2023-04-11T08:17:38.082Z,67.85
2023-04-11T08:20:09.292Z,67.59
2023-04-11T08:22:38.962Z,65.90
2023-04-11T08:25:08.622Z,65.21
2023-04-11T08:27:36.802Z,65.60
2023-04-11T08:30:05.990Z,64.90
2023-04-11T08:32:33.873Z,63.10
2023-04-11T08:35:02.592Z,63.44
2023-04-11T08:37:31.801Z,62.88
2023-04-11T08:40:00.988Z,62.45
2023-04-11T08:42:30.938Z,59.05
2023-04-11T08:45:00.680Z,61.53
2023-04-11T08:47:28.888Z,60.76
2023-04-11T08:49:57.583Z,59.97
2023-04-11T08:52:26.349Z,60.95
2023-04-11T08:54:55.882Z,56.81
2023-04-11T08:57:27.567Z,54.37
2023-04-11T08:59:57.101Z,55.13
2023-04-11T09:02:25.673Z,56.75
2023-04-11T09:04:54.660Z,51.18
2023-04-11T09:07:22.509Z,52.45
2023-04-11T09:09:50.363Z,51.09
2023-04-11T09:12:22.917Z,50.43
2023-04-11T09:14:52.128Z,49.89
2023-04-11T09:17:19.916Z,50.08
2023-04-11T09:19:49.101Z,50.62
2023-04-11T09:22:17.449Z,48.86
2023-04-11T09:24:46.698Z,48.11
2023-04-11T09:27:16.723Z,49.33
2023-04-11T09:29:46.436Z,45.66
2023-04-11T09:32:32.531Z,48.16
2023-04-11T09:35:09.677Z,47.50
2023-04-11T09:37:48.479Z,47.34
2023-04-11T09:40:18.419Z,48.66
2023-04-11T09:42:47.886Z,49.90
2023-04-11T09:45:20.393Z,51.22
2023-04-11T09:47:51.574Z,50.59
2023-04-11T09:50:20.316Z,48.67
2023-04-11T09:52:48.515Z,46.84
2023-04-11T09:55:20.510Z,48.88
2023-04-11T09:57:50.016Z,49.45
2023-04-11T10:00:22.119Z,48.83
2023-04-11T10:02:54.888Z,45.45
2023-04-11T10:05:27.537Z,45.95
2023-04-11T10:08:06.171Z,45.12
2023-04-11T10:10:34.231Z,41.78
2023-04-11T10:13:02.260Z,42.85
2023-04-11T10:15:30.427Z,44.39
2023-04-11T10:18:13.710Z,44.85
2023-04-11T10:20:43.750Z,45.22
2023-04-11T10:23:12.751Z,44.87
2023-04-11T10:26:01.198Z,44.34
2023-04-11T10:28:38.288Z,43.88
2023-04-11T10:31:09.024Z,44.39
2023-04-11T10:33:39.714Z,42.47
2023-04-11T10:36:10.119Z,41.50
2023-04-11T10:38:48.924Z,39.57
2023-04-11T10:41:19.359Z,39.17
2023-04-11T10:43:47.620Z,37.64
2023-04-11T10:46:20.846Z,36.52
2023-04-11T10:49:00.730Z,36.83
2023-04-11T10:51:30.030Z,39.47
2023-04-11T10:54:00.295Z,38.16
2023-04-11T10:56:56.698Z,40.39
2023-04-11T10:59:57.775Z,41.21
2023-04-11T11:02:37.074Z,39.95
2023-04-11T11:05:18.320Z,38.86
2023-04-11T11:07:51.131Z,39.29
2023-04-11T11:10:43.407Z,39.14
2023-04-11T11:13:11.554Z,40.39
2023-04-11T11:15:39.831Z,38.65
2023-04-11T11:18:09.994Z,39.27
2023-04-11T11:20:40.999Z,37.54
2023-04-11T11:23:11.308Z,38.46
2023-04-11T11:25:39.420Z,37.95
2023-04-11T11:28:08.665Z,36.71
2023-04-11T11:30:37.933Z,37.53
2023-04-11T11:33:17.773Z,36.46
2023-04-11T11:35:53.425Z,36.39
2023-04-11T11:38:22.421Z,34.79
2023-04-11T11:40:50.735Z,35.79
2023-04-11T11:43:18.856Z,36.03
2023-04-11T11:45:47.050Z,37.44
2023-04-11T11:48:22.302Z,37.99
2023-04-11T11:50:57.882Z,37.88
2023-04-11T11:53:26.695Z,37.54
2023-04-11T11:55:56.766Z,35.46
2023-04-11T11:58:24.981Z,34.78
2023-04-11T12:00:53.508Z,35.64
2023-04-11T12:03:24.013Z,36.84
2023-04-11T12:05:53.756Z,38.00
2023-04-11T12:08:23.197Z,37.39
2023-04-11T12:10:51.650Z,36.55
2023-04-11T12:13:22.486Z,35.34
2023-04-11T12:15:51.944Z,34.72
2023-04-11T12:18:22.087Z,35.05
2023-04-11T12:20:50.214Z,34.09
2023-04-11T12:23:18.379Z,33.43
2023-04-11T12:25:48.361Z,33.61
2023-04-11T12:28:16.737Z,32.99
2023-04-11T12:30:44.811Z,34.20
2023-04-11T12:33:12.718Z,34.22
2023-04-11T12:35:40.667Z,33.92
2023-04-11T12:38:08.952Z,33.21
2023-04-11T12:40:37.572Z,33.28
2023-04-11T12:43:06.842Z,33.97
2023-04-11T12:45:34.907Z,34.20
2023-04-11T12:48:02.732Z,34.79
2023-04-11T12:50:30.926Z,35.74
2023-04-11T12:52:58.853Z,35.88
2023-04-11T12:55:26.916Z,36.90
2023-04-11T12:57:54.881Z,36.91
2023-04-11T13:00:24.335Z,36.11
2023-04-11T13:02:53.453Z,36.04
2023-04-11T13:05:22.561Z,37.02
2023-04-11T13:07:50.652Z,33.65
2023-04-11T13:10:18.471Z,33.82
2023-04-11T13:12:48.018Z,34.55
2023-04-11T13:15:17.338Z,34.62
2023-04-11T13:17:47.117Z,34.64
2023-04-11T13:20:15.031Z,34.76
2023-04-11T13:22:44.314Z,35.25
2023-04-11T13:25:12.591Z,34.47
2023-04-11T13:27:40.526Z,35.35
2023-04-11T13:30:10.213Z,34.11
2023-04-11T13:32:38.129Z,33.87
2023-04-11T13:35:08.454Z,34.71
2023-04-11T13:37:36.328Z,34.91
2023-04-11T13:40:08.327Z,35.24
2023-04-11T13:42:36.237Z,33.99
2023-04-11T13:45:04.530Z,35.72
2023-04-11T13:47:32.464Z,35.52
2023-04-11T13:50:00.480Z,35.05
2023-04-11T13:52:29.652Z,35.33
2023-04-11T13:54:57.440Z,34.45
2023-04-11T13:57:25.376Z,34.32
2023-04-11T13:59:53.185Z,35.81
2023-04-11T14:02:21.476Z,35.30
2023-04-11T14:04:49.949Z,35.59
2023-04-11T14:07:17.804Z,36.53
2023-04-11T14:09:50.195Z,35.54
2023-04-11T14:12:18.155Z,35.56
2023-04-11T14:14:45.980Z,35.42
2023-04-11T14:17:13.890Z,35.44
2023-04-11T14:19:41.839Z,35.64
2023-04-11T14:22:09.740Z,36.03
2023-04-11T14:24:37.802Z,36.27
2023-04-11T14:27:07.308Z,36.15
2023-04-11T14:29:37.325Z,36.59
2023-04-11T14:32:07.025Z,35.79
2023-04-11T14:34:34.881Z,37.15
2023-04-11T14:37:02.779Z,36.33
2023-04-11T14:39:31.637Z,37.79
2023-04-11T14:42:01.859Z,36.84
2023-04-11T14:44:31.117Z,38.04
2023-04-11T14:46:59.067Z,37.05
2023-04-11T14:49:27.045Z,37.85
2023-04-11T14:51:54.924Z,39.38
2023-04-11T14:54:24.183Z,37.79
2023-04-11T14:56:52.352Z,40.16
2023-04-11T14:59:20.840Z,40.26
2023-04-11T15:01:50.106Z,39.90
2023-04-11T15:04:18.175Z,40.27
2023-04-11T15:06:46.488Z,40.81
2023-04-11T15:09:19.733Z,40.94
2023-04-11T15:11:48.093Z,41.61
2023-04-11T15:14:15.976Z,41.09
2023-04-11T15:16:43.850Z,41.40
2023-04-11T15:19:13.132Z,42.32
2023-04-11T15:21:41.087Z,41.20
2023-04-11T15:24:08.963Z,41.54
2023-04-11T15:26:36.789Z,42.11
2023-04-11T15:29:04.652Z,40.30
2023-04-11T15:31:32.573Z,40.16
2023-04-11T15:34:03.810Z,40.35
2023-04-11T15:36:34.098Z,40.76
2023-04-11T15:39:01.974Z,40.41
2023-04-11T15:41:31.929Z,40.25
2023-04-11T15:44:01.488Z,40.14
2023-04-11T15:46:30.100Z,39.64
2023-04-11T15:48:57.949Z,37.26
2023-04-11T15:51:27.397Z,40.03
2023-04-11T15:53:56.751Z,38.88
2023-04-11T15:56:24.749Z,39.00
2023-04-11T15:58:52.566Z,40.10
2023-04-11T16:01:25.724Z,41.77
2023-04-11T16:03:55.207Z,44.26
2023-04-11T16:06:23.241Z,44.24
2023-04-11T16:08:51.685Z,43.67
2023-04-11T16:11:21.091Z,46.38
2023-04-11T16:13:49.038Z,44.94
2023-04-11T16:16:16.974Z,45.79
2023-04-11T16:18:44.885Z,45.61
2023-04-11T16:21:13.553Z,46.82
2023-04-11T16:23:41.440Z,46.57
2023-04-11T16:26:10.787Z,45.83
2023-04-11T16:28:40.074Z,46.91
2023-04-11T16:31:09.265Z,45.91
2023-04-11T16:33:37.164Z,46.09
2023-04-11T16:36:05.613Z,47.00
2023-04-11T16:38:33.512Z,45.10
2023-04-11T16:41:01.566Z,45.89
2023-04-11T16:43:29.319Z,46.09
2023-04-11T16:45:58.676Z,46.68
2023-04-11T16:48:27.104Z,47.13
2023-04-11T16:50:54.977Z,46.21
2023-04-11T16:53:22.872Z,46.56
2023-04-11T16:55:52.557Z,48.11
2023-04-11T16:58:20.430Z,48.00
2023-04-11T17:00:49.177Z,48.64
2023-04-11T17:03:18.727Z,49.15
2023-04-11T17:05:46.809Z,48.58
2023-04-11T17:08:15.683Z,48.79
2023-04-11T17:10:44.061Z,48.41
2023-04-11T17:13:12.729Z,49.09
2023-04-11T17:15:40.847Z,49.20
2023-04-11T17:18:08.779Z,48.95
2023-04-11T17:20:38.142Z,49.01
2023-04-11T17:23:06.286Z,49.75
2023-04-11T17:25:34.120Z,49.89
2023-04-11T17:28:02.111Z,49.79
2023-04-11T17:30:31.744Z,50.56
2023-04-11T17:33:00.072Z,50.52
2023-04-11T17:35:28.921Z,50.21
2023-04-11T17:37:58.138Z,50.26
2023-04-11T17:40:26.000Z,50.11
2023-04-11T17:42:53.988Z,52.09
2023-04-11T17:45:22.364Z,52.00
2023-04-11T17:47:51.108Z,51.03
2023-04-11T17:50:20.112Z,52.16
2023-04-11T17:52:48.455Z,51.76
2023-04-11T17:55:19.662Z,52.17
2023-04-11T17:57:49.044Z,52.97
2023-04-11T18:00:19.491Z,53.37
2023-04-11T18:02:49.517Z,53.84
2023-04-11T18:05:23.659Z,54.19
2023-04-11T18:07:52.207Z,54.12
2023-04-11T18:10:22.886Z,54.66
2023-04-11T18:12:52.293Z,54.92
2023-04-11T18:15:20.884Z,55.30
2023-04-11T18:17:49.150Z,55.83
2023-04-11T18:20:17.004Z,55.49
2023-04-11T18:22:45.973Z,55.58
2023-04-11T18:25:14.498Z,55.89
2023-04-11T18:27:43.905Z,56.02
2023-04-11T18:30:13.542Z,56.87
2023-04-11T18:32:46.559Z,57.02
2023-04-11T18:35:17.178Z,56.86
2023-04-11T18:37:45.270Z,57.00
2023-04-11T18:40:15.398Z,56.91
2023-04-11T18:42:47.078Z,57.98
2023-04-11T18:45:17.769Z,58.11
2023-04-11T18:47:46.395Z,58.14
2023-04-11T18:50:14.848Z,58.04
2023-04-11T18:52:44.957Z,58.55
2023-04-11T18:55:13.614Z,58.57
2023-04-11T18:57:43.149Z,59.28
2023-04-11T19:00:18.061Z,59.76
2023-04-11T19:02:50.149Z,60.10
2023-04-11T19:05:19.271Z,60.01
2023-04-11T19:07:47.377Z,60.55
2023-04-11T19:10:15.404Z,60.37
2023-04-11T19:12:43.278Z,60.73
2023-04-11T19:15:13.564Z,60.84
2023-04-11T19:17:41.634Z,61.35
2023-04-11T19:20:12.821Z,61.02
2023-04-11T19:22:41.981Z,62.13
2023-04-11T19:25:11.782Z,61.51
2023-04-11T19:27:41.517Z,61.24
2023-04-11T19:30:11.029Z,62.07
2023-04-11T19:32:43.387Z,62.26
2023-04-11T19:35:12.367Z,62.16
2023-04-11T19:37:40.826Z,62.61
2023-04-11T19:40:11.120Z,62.75
2023-04-11T19:42:40.300Z,62.54
2023-04-11T19:45:11.228Z,62.52
2023-04-11T19:47:41.318Z,63.28
2023-04-11T19:50:12.010Z,65.40
2023-04-11T19:52:40.071Z,63.26
2023-04-11T19:55:09.419Z,64.40
2023-04-11T19:57:38.304Z,63.87
2023-04-11T20:00:12.101Z,63.97
2023-04-11T20:02:45.278Z,64.28
2023-04-11T20:05:14.717Z,63.62
2023-04-11T20:07:43.955Z,63.64
2023-04-11T20:10:12.580Z,64.01
2023-04-11T20:12:40.554Z,63.89
2023-04-11T20:15:09.827Z,63.55
2023-04-11T20:17:37.817Z,63.15
2023-04-11T20:20:10.937Z,63.06
2023-04-11T20:22:39.097Z,63.97
2023-04-11T20:25:11.239Z,63.73
2023-04-11T20:27:39.458Z,63.99
2023-04-11T20:30:10.638Z,64.63
2023-04-11T20:32:39.082Z,64.75
2023-04-11T20:35:10.216Z,64.06
2023-04-11T20:37:38.399Z,64.32
2023-04-11T20:40:10.028Z,63.79
2023-04-11T20:42:40.117Z,64.42
2023-04-11T20:45:10.427Z,64.31
2023-04-11T20:47:38.665Z,64.38
2023-04-11T20:50:10.539Z,64.85
2023-04-11T20:52:41.432Z,65.01
2023-04-11T20:55:10.677Z,65.06
2023-04-11T20:57:38.586Z,65.11
2023-04-11T21:00:12.517Z,64.83
2023-04-11T21:02:41.974Z,65.12
2023-04-11T21:05:11.868Z,65.22
2023-04-11T21:07:40.049Z,64.86
2023-04-11T21:10:09.173Z,64.40
2023-04-11T21:12:37.505Z,65.38
2023-04-11T21:15:06.783Z,64.75
2023-04-11T21:17:37.203Z,65.24
2023-04-11T21:20:10.118Z,65.69
2023-04-11T21:22:40.242Z,65.65
2023-04-11T21:25:09.381Z,64.97
2023-04-11T21:27:37.224Z,65.81
2023-04-11T21:30:06.228Z,65.67
2023-04-11T21:32:34.182Z,65.67
2023-04-11T21:35:02.335Z,65.54
2023-04-11T21:37:30.367Z,65.79
2023-04-11T21:39:59.690Z,66.16
2023-04-11T21:42:27.620Z,65.47
2023-04-11T21:44:55.541Z,65.62
2023-04-11T21:47:23.386Z,65.51
2023-04-11T21:49:51.344Z,65.26
2023-04-11T21:52:19.209Z,64.76
2023-04-11T21:54:47.818Z,65.07
2023-04-11T21:57:17.045Z,65.04
2023-04-11T21:59:44.905Z,65.65
2023-04-11T22:02:12.899Z,65.76
2023-04-11T22:04:51.696Z,65.61
2023-04-11T22:07:31.651Z,65.34
2023-04-11T22:10:03.803Z,65.78
2023-04-11T22:12:33.137Z,66.80
2023-04-11T22:15:00.932Z,66.91
2023-04-11T22:17:31.409Z,67.21
2023-04-11T22:19:59.416Z,67.62
2023-04-11T22:22:30.151Z,67.56
2023-04-11T22:24:59.125Z,67.31
2023-04-11T22:27:29.419Z,67.18
2023-04-11T22:29:59.745Z,67.72
2023-04-11T22:32:28.230Z,67.96
2023-04-11T22:34:56.248Z,67.78
2023-04-11T22:37:24.110Z,68.07
2023-04-11T22:39:51.961Z,67.79
2023-04-11T22:42:19.979Z,67.78
2023-04-11T22:44:47.762Z,68.04
2023-04-11T22:47:17.065Z,67.25
2023-04-11T22:49:45.868Z,66.97
2023-04-11T22:52:14.892Z,67.02
2023-04-11T22:54:43.887Z,67.91
2023-04-11T22:57:11.693Z,67.87
2023-04-11T22:59:39.502Z,68.08
2023-04-11T23:02:07.498Z,68.19
2023-04-11T23:04:37.024Z,67.74
2023-04-11T23:07:05.102Z,68.05
2023-04-11T23:09:33.064Z,68.15
2023-04-11T23:12:01.030Z,67.80
2023-04-11T23:14:31.347Z,67.56
2023-04-11T23:16:59.336Z,68.01
2023-04-11T23:19:27.351Z,68.42
2023-04-11T23:21:56.551Z,68.25
2023-04-11T23:24:24.496Z,68.35
2023-04-11T23:26:52.494Z,68.80
2023-04-11T23:29:20.446Z,69.37
2023-04-11T23:31:48.216Z,70.26
2023-04-11T23:34:16.139Z,71.23
2023-04-11T23:36:44.283Z,72.67
2023-04-11T23:39:13.476Z,72.73
2023-04-11T23:41:41.476Z,73.08
2023-04-11T23:44:09.306Z,71.67
2023-04-11T23:46:37.316Z,73.29
2023-04-11T23:49:05.968Z,73.99
2023-04-11T23:51:33.882Z,74.80
2023-04-11T23:54:01.928Z,76.49
2023-04-11T23:56:31.122Z,76.69
2023-04-11T23:58:58.976Z,77.31
